3PS4 weather

Mountain Hide-Away Airport
Millcreek, Pennsylvania, United States

Public forecast

Using degrees Fahrenheit for public forecast. Weather courtesy of forecast.io.

Closest aviation weather report (METAR) to Mountain Hide-Away Airport

Closest report is University Park Airport, 9.8 nm (18.2 km) NE. Retrieved 2019/10/19 10:53 UTC (1 hour ago):

KUNV 191053Z 00000KT 10SM SKC 00/00 A3008

Closest aviation forecast (TAF) to Mountain Hide-Away Airport

Closest forecast is University Park Airport, 9.8 nm (18.2 km) NE. Retrieved 2019/10/19 06:00 UTC (6 hours ago):

TAF KUNV 190559Z 1906/2006 00000KT P6SM SKC FM190700 00000KT P6SM VCFG FEW250 TEMPO 1910/1912 1SM BR SCT003 FM191330 17004KT P6SM SCT250